createdAt,value
2023-03-11T00:16:29.934Z,0.90
2023-03-11T00:43:36.796Z,0.60
2023-03-11T00:46:04.892Z,0.50
2023-03-11T00:48:31.857Z,0.80
2023-03-11T00:50:58.841Z,0.98
2023-03-11T00:53:25.906Z,0.80
2023-03-11T00:55:52.645Z,0.63
2023-03-11T00:58:19.431Z,0.50
2023-03-11T01:00:46.174Z,0.70
2023-03-11T01:03:13.183Z,0.73
2023-03-11T01:05:40.612Z,0.60
2023-03-11T01:08:07.373Z,0.70
2023-03-11T01:10:35.199Z,0.82
2023-03-11T01:13:03.096Z,0.80
2023-03-11T01:15:33.729Z,0.70
2023-03-11T01:18:00.896Z,1.25
2023-03-11T01:20:27.970Z,0.65
2023-03-11T01:22:54.936Z,0.82
2023-03-11T01:25:23.512Z,0.68
2023-03-11T01:27:50.875Z,0.90
2023-03-11T01:30:23.155Z,1.00
2023-03-11T01:32:51.262Z,0.93
2023-03-11T01:35:20.475Z,0.80
2023-03-11T01:37:47.858Z,0.90
2023-03-11T01:40:19.853Z,0.60
2023-03-11T01:42:46.833Z,0.75
2023-03-11T01:45:35.671Z,1.10
2023-03-11T01:48:02.392Z,0.88
2023-03-11T01:50:35.559Z,0.80
2023-03-11T01:53:04.321Z,0.80
2023-03-11T01:55:32.072Z,1.20
2023-03-11T01:58:02.526Z,0.60
2023-03-11T02:00:29.212Z,0.98
2023-03-11T02:02:58.763Z,1.05
2023-03-11T02:05:26.071Z,1.00
2023-03-11T02:07:54.818Z,1.10
2023-03-11T02:10:22.122Z,0.80
2023-03-11T02:12:50.181Z,0.93
2023-03-11T02:15:17.067Z,1.00
2023-03-11T02:17:43.977Z,0.90
2023-03-11T02:20:16.617Z,1.13
2023-03-11T02:22:44.225Z,1.15
2023-03-11T02:26:07.429Z,0.90
2023-03-11T02:28:35.995Z,1.60
2023-03-11T02:31:02.764Z,1.00
2023-03-11T02:33:32.878Z,1.17
2023-03-11T02:35:59.641Z,0.93
2023-03-11T02:38:26.513Z,0.95
2023-03-11T02:40:56.855Z,0.90
2023-03-11T02:43:33.976Z,0.90
2023-03-11T02:46:01.854Z,1.35
2023-03-11T02:48:29.814Z,1.20
2023-03-11T02:50:57.246Z,1.20
2023-03-11T02:53:26.183Z,1.17
2023-03-11T02:55:52.903Z,0.90
2023-03-11T02:58:19.655Z,1.13
2023-03-11T03:00:46.651Z,1.05
2023-03-11T03:03:13.443Z,1.88
2023-03-11T03:05:40.223Z,1.38
2023-03-11T03:08:07.012Z,1.00
2023-03-11T03:10:33.793Z,0.90
2023-03-11T03:13:00.579Z,0.95
2023-03-11T03:15:27.522Z,1.00
2023-03-11T03:17:54.384Z,1.35
2023-03-11T03:20:22.725Z,0.90
2023-03-11T03:22:50.496Z,1.38
2023-03-11T03:25:17.581Z,1.27
2023-03-11T03:27:44.425Z,1.08
2023-03-11T03:30:12.021Z,1.13
2023-03-11T03:32:38.854Z,1.13
2023-03-11T03:35:06.266Z,1.20
2023-03-11T03:37:34.864Z,1.10
2023-03-11T03:40:01.785Z,1.25
2023-03-11T03:42:28.790Z,1.40
2023-03-11T03:44:55.653Z,1.10
2023-03-11T03:47:22.438Z,1.30
2023-03-11T03:49:49.237Z,1.10
2023-03-11T03:52:16.013Z,1.35
2023-03-11T03:54:42.741Z,1.27
2023-03-11T03:57:09.918Z,1.20
2023-03-11T03:59:36.893Z,1.42
2023-03-11T04:02:03.687Z,1.30
2023-03-11T04:04:30.909Z,1.55
2023-03-11T04:06:57.761Z,1.40
2023-03-11T04:09:24.871Z,1.35
2023-03-11T04:11:51.800Z,1.38
2023-03-11T04:14:18.651Z,1.27
2023-03-11T04:16:45.549Z,1.40
2023-03-11T04:19:12.371Z,1.65
2023-03-11T04:21:39.181Z,1.50
2023-03-11T04:24:06.239Z,1.20
2023-03-11T04:26:33.066Z,1.60
2023-03-11T04:28:59.901Z,1.23
2023-03-11T04:31:26.685Z,1.30
2023-03-11T04:33:54.584Z,1.70
2023-03-11T04:36:21.689Z,1.50
2023-03-11T04:38:48.513Z,1.55
2023-03-11T04:41:15.265Z,1.42
2023-03-11T04:43:42.158Z,1.40
2023-03-11T04:46:09.082Z,2.45
2023-03-11T04:48:37.509Z,1.50
2023-03-11T04:51:04.550Z,1.20
2023-03-11T04:53:31.354Z,1.48
2023-03-11T04:55:58.152Z,1.50
2023-03-11T04:58:25.152Z,1.23
2023-03-11T05:00:52.753Z,1.55
2023-03-11T05:03:19.794Z,1.23
2023-03-11T05:05:46.667Z,1.85
2023-03-11T05:08:13.582Z,1.48
2023-03-11T05:10:41.899Z,1.27
2023-03-11T05:13:08.847Z,1.35
2023-03-11T05:15:36.587Z,1.50
2023-03-11T05:18:04.636Z,1.45
2023-03-11T05:20:32.409Z,1.33
2023-03-11T05:22:59.229Z,1.40
2023-03-11T05:25:26.160Z,1.80
2023-03-11T05:27:53.228Z,1.80
2023-03-11T05:30:20.044Z,1.48
2023-03-11T05:32:46.901Z,1.65
2023-03-11T05:35:13.707Z,2.00
2023-03-11T05:37:40.466Z,1.80
2023-03-11T05:40:09.759Z,1.60
2023-03-11T05:42:36.579Z,1.30
2023-03-11T05:45:03.841Z,1.33
2023-03-11T05:47:30.611Z,1.30
2023-03-11T05:49:57.384Z,1.58
2023-03-11T05:52:24.232Z,1.40
2023-03-11T05:54:51.976Z,1.20
2023-03-11T05:57:19.918Z,1.15
2023-03-11T05:59:46.923Z,1.33
2023-03-11T06:02:14.014Z,1.38
2023-03-11T06:04:40.975Z,1.30
2023-03-11T06:07:07.778Z,1.65
2023-03-11T06:09:36.955Z,1.45
2023-03-11T06:12:04.956Z,1.60
2023-03-11T06:14:32.687Z,1.85
2023-03-11T06:16:59.589Z,1.70
2023-03-11T06:19:26.850Z,1.60
2023-03-11T06:21:53.598Z,1.20
2023-03-11T06:24:20.344Z,1.27
2023-03-11T06:26:50.686Z,1.35
2023-03-11T06:29:17.459Z,1.50
2023-03-11T06:31:44.458Z,1.38
2023-03-11T06:34:11.471Z,1.40
2023-03-11T06:36:38.352Z,2.08
2023-03-11T06:39:05.349Z,1.10
2023-03-11T06:41:34.830Z,1.88
2023-03-11T06:44:01.909Z,1.58
2023-03-11T06:46:28.815Z,1.50
2023-03-11T06:48:55.705Z,1.42
2023-03-11T06:51:22.540Z,1.33
2023-03-11T07:14:09.489Z,1.63
2023-03-11T07:16:39.346Z,1.85
2023-03-11T07:19:06.247Z,1.17
2023-03-11T07:21:33.148Z,1.13
2023-03-11T07:24:02.012Z,1.00
2023-03-11T07:26:30.748Z,1.05
2023-03-11T07:28:58.082Z,1.40
2023-03-11T07:31:30.878Z,1.25
2023-03-11T07:34:00.168Z,1.10
2023-03-11T07:36:28.212Z,1.30
2023-03-11T07:38:59.560Z,1.60
2023-03-11T07:41:27.185Z,0.95
2023-03-11T07:43:56.132Z,1.20
2023-03-11T07:46:24.767Z,1.40
2023-03-11T07:48:51.855Z,1.00
2023-03-11T07:51:21.542Z,1.83
2023-03-11T07:53:49.456Z,1.40
2023-03-11T07:56:17.609Z,1.05
2023-03-11T07:58:45.938Z,1.23
2023-03-11T08:01:12.801Z,1.30
2023-03-11T08:03:39.875Z,0.93
2023-03-11T08:06:18.756Z,1.10
2023-03-11T08:08:45.989Z,1.35
2023-03-11T08:11:14.105Z,0.95
2023-03-11T08:13:42.688Z,1.42
2023-03-11T08:16:11.142Z,0.85
2023-03-11T08:18:38.076Z,1.20
2023-03-11T08:21:09.621Z,1.30
2023-03-11T08:23:36.514Z,1.10
2023-03-11T08:26:04.749Z,1.05
2023-03-11T08:28:31.738Z,1.10
2023-03-11T08:30:58.601Z,1.00
2023-03-11T08:33:25.537Z,0.80
2023-03-11T08:35:52.598Z,1.27
2023-03-11T08:38:19.589Z,1.65
2023-03-11T08:40:46.339Z,2.20
2023-03-11T08:43:14.315Z,1.70
2023-03-11T08:45:42.282Z,1.40
2023-03-11T08:48:11.523Z,1.15
2023-03-11T08:50:53.535Z,1.00
2023-03-11T08:53:22.589Z,1.13
2023-03-11T08:55:50.900Z,1.10
2023-03-11T08:58:18.018Z,1.42
2023-03-11T09:00:45.174Z,1.20
2023-03-11T09:03:13.452Z,1.65
2023-03-11T09:05:40.418Z,1.25
2023-03-11T09:08:07.294Z,0.88
2023-03-11T09:10:34.079Z,1.20
2023-03-11T09:13:01.028Z,1.35
2023-03-11T09:15:27.863Z,1.35
2023-03-11T09:17:55.807Z,1.00
2023-03-11T09:20:22.800Z,0.98
2023-03-11T09:22:49.759Z,0.90
2023-03-11T09:25:16.728Z,1.20
2023-03-11T09:27:43.441Z,1.20
2023-03-11T09:30:11.325Z,1.00
2023-03-11T09:32:38.052Z,1.33
2023-03-11T09:35:05.508Z,1.23
2023-03-11T09:37:32.434Z,0.90
2023-03-11T09:39:59.176Z,1.13
2023-03-11T09:42:32.954Z,1.13
2023-03-11T10:08:40.335Z,1.17
2023-03-11T10:11:23.243Z,0.93
2023-03-11T10:14:10.297Z,1.63
2023-03-11T10:19:35.023Z,1.75
2023-03-11T10:22:11.455Z,0.70
2023-03-11T10:25:07.448Z,0.85
2023-03-11T10:27:42.098Z,0.90
2023-03-11T10:30:31.981Z,1.20
2023-03-11T10:33:06.375Z,1.17
2023-03-11T10:35:41.595Z,1.13
2023-03-11T10:38:28.272Z,0.90
2023-03-11T10:40:58.823Z,1.25
2023-03-11T10:43:38.941Z,0.98
2023-03-11T10:46:18.786Z,1.08
2023-03-11T10:48:46.004Z,0.98
2023-03-11T10:51:15.619Z,0.90
2023-03-11T10:53:57.618Z,1.25
2023-03-11T10:56:42.535Z,1.00
2023-03-11T10:59:29.339Z,1.30
2023-03-11T11:02:01.821Z,0.88
2023-03-11T11:04:38.919Z,1.00
2023-03-11T11:07:28.423Z,1.20
2023-03-11T11:10:18.267Z,0.93
2023-03-11T11:12:51.322Z,1.00
2023-03-11T11:15:42.345Z,1.20
2023-03-11T11:18:49.346Z,1.00
2023-03-11T11:21:28.765Z,1.10
2023-03-11T11:24:15.588Z,0.90
2023-03-11T11:26:42.650Z,0.90
2023-03-11T11:29:12.494Z,1.00
2023-03-11T11:31:47.248Z,1.10
2023-03-11T11:34:30.861Z,0.80
2023-03-11T11:37:00.928Z,1.10
2023-03-11T11:39:32.206Z,1.00
2023-03-11T11:42:01.197Z,1.00
2023-03-11T11:44:34.406Z,1.10
2023-03-11T11:47:13.572Z,1.02
2023-03-11T11:49:50.463Z,1.00
2023-03-11T11:52:22.708Z,0.90
2023-03-11T11:54:57.241Z,1.05
2023-03-11T11:57:24.628Z,1.20
2023-03-11T11:59:51.703Z,1.30
2023-03-11T12:02:57.520Z,0.98
2023-03-11T12:05:30.976Z,1.27
2023-03-11T12:08:16.210Z,1.10
2023-03-11T12:11:04.727Z,0.90
2023-03-11T12:13:50.094Z,0.80
2023-03-11T12:16:19.890Z,0.90
2023-03-11T12:19:11.419Z,1.20
2023-03-11T12:21:53.248Z,1.10
2023-03-11T12:24:19.986Z,1.00
2023-03-11T12:26:49.117Z,1.10
2023-03-11T12:29:30.134Z,0.93
2023-03-11T12:31:59.851Z,1.17
2023-03-11T12:34:28.395Z,1.10
2023-03-11T12:36:59.995Z,1.00
2023-03-11T12:39:31.286Z,1.02
2023-03-11T12:42:17.002Z,1.15
2023-03-11T12:44:44.640Z,0.90
2023-03-11T12:47:11.473Z,0.82
2023-03-11T12:49:47.496Z,1.30
2023-03-11T12:52:14.274Z,1.02
2023-03-11T12:54:45.712Z,0.98
2023-03-11T12:57:18.819Z,1.10
2023-03-11T13:00:12.297Z,0.98
2023-03-11T13:02:51.368Z,1.02
2023-03-11T13:05:49.155Z,0.90
2023-03-11T13:08:37.059Z,1.20
2023-03-11T13:11:51.321Z,1.00
2023-03-11T13:14:30.689Z,0.93
2023-03-11T13:17:24.763Z,0.90
2023-03-11T13:19:54.859Z,0.82
2023-03-11T13:23:05.018Z,0.80
2023-03-11T13:25:52.244Z,1.35
2023-03-11T13:28:21.757Z,0.90
2023-03-11T13:31:15.264Z,0.95
2023-03-11T13:33:55.102Z,1.00
2023-03-11T13:36:32.879Z,0.90
2023-03-11T13:39:12.839Z,1.08
2023-03-11T13:41:43.282Z,0.93
2023-03-11T13:44:26.025Z,0.90
2023-03-11T13:47:01.790Z,1.02
2023-03-11T13:50:05.827Z,1.20
2023-03-11T13:52:53.649Z,1.02
2023-03-11T13:55:25.186Z,0.95
2023-03-11T13:57:54.995Z,0.90
2023-03-11T14:00:24.608Z,1.08
2023-03-11T14:03:01.293Z,1.10
2023-03-11T14:05:35.836Z,0.90
2023-03-11T14:08:31.996Z,0.90
2023-03-11T14:11:03.135Z,1.10
2023-03-11T14:13:39.011Z,0.88
2023-03-11T14:16:19.109Z,0.95
2023-03-11T14:19:02.675Z,0.90
2023-03-11T14:21:31.656Z,1.05
2023-03-11T14:23:58.920Z,0.98
2023-03-11T14:26:35.561Z,0.90
2023-03-11T14:31:34.088Z,1.27
2023-03-11T14:34:07.751Z,0.93
2023-03-11T14:36:52.452Z,1.05
2023-03-11T14:39:31.018Z,0.90
2023-03-11T14:42:13.827Z,1.02
2023-03-11T14:44:44.481Z,0.90
2023-03-11T14:47:23.251Z,1.08
2023-03-11T14:49:52.866Z,0.95
2023-03-11T14:52:25.334Z,1.42
2023-03-11T14:54:53.574Z,1.00
2023-03-11T14:57:37.620Z,0.90
2023-03-11T15:00:10.240Z,0.93
2023-03-11T15:02:45.636Z,1.00
2023-03-11T15:05:22.724Z,1.23
2023-03-11T15:07:57.019Z,1.10
2023-03-11T15:10:24.005Z,1.20
2023-03-11T15:12:50.895Z,1.20
2023-03-11T15:15:27.215Z,0.80
2023-03-11T15:17:59.613Z,0.95
2023-03-11T15:20:36.588Z,0.95
2023-03-11T15:23:06.063Z,1.02
2023-03-11T15:25:36.678Z,1.00
2023-03-11T15:28:28.765Z,0.80
2023-03-11T15:31:26.772Z,1.02
2023-03-11T15:33:53.668Z,0.90
2023-03-11T15:36:33.076Z,1.13
2023-03-11T15:39:25.397Z,0.93
2023-03-11T15:42:03.668Z,1.02
2023-03-11T15:44:36.917Z,1.20
2023-03-11T15:47:04.213Z,1.20
2023-03-11T15:49:31.028Z,1.10
2023-03-11T15:52:02.195Z,1.17
2023-03-11T15:54:29.482Z,1.02
2023-03-11T15:57:01.340Z,1.00
2023-03-11T15:59:29.505Z,1.00
2023-03-11T16:01:56.392Z,0.90
2023-03-11T16:04:23.240Z,1.88
2023-03-11T16:07:02.828Z,1.05
2023-03-11T16:09:34.259Z,1.23
2023-03-11T16:12:02.217Z,0.88
2023-03-11T16:14:29.015Z,1.10
2023-03-11T16:16:55.805Z,1.38
2023-03-11T16:19:22.591Z,1.27
2023-03-11T16:21:50.672Z,1.00
2023-03-11T16:24:24.083Z,0.90
2023-03-11T16:26:52.690Z,1.25
2023-03-11T16:29:20.091Z,1.02
2023-03-11T16:31:47.415Z,0.80
2023-03-11T16:34:14.201Z,1.30
2023-03-11T16:36:41.272Z,1.20
2023-03-11T16:39:08.190Z,1.00
2023-03-11T16:41:43.871Z,1.00
2023-03-11T16:44:11.137Z,1.13
2023-03-11T16:46:38.299Z,1.10
2023-03-11T16:49:05.514Z,1.00
2023-03-11T16:51:33.662Z,1.05
2023-03-11T16:54:00.770Z,1.10
2023-03-11T16:56:27.703Z,1.10
2023-03-11T16:58:54.565Z,1.40
2023-03-11T17:01:22.293Z,1.15
2023-03-11T17:03:53.087Z,0.95
2023-03-11T17:06:21.009Z,1.20
2023-03-11T17:08:49.667Z,1.23
2023-03-11T17:11:20.139Z,1.30
2023-03-11T17:13:47.580Z,2.75
2023-03-11T17:16:14.874Z,1.58
2023-03-11T17:18:42.113Z,1.30
2023-03-11T17:21:11.211Z,1.50
2023-03-11T17:23:38.121Z,1.23
2023-03-11T17:26:16.671Z,1.30
2023-03-11T17:28:43.928Z,1.73
2023-03-11T17:31:13.497Z,1.60
2023-03-11T17:33:40.623Z,2.30
2023-03-11T17:36:09.168Z,2.50
2023-03-11T17:38:35.982Z,4.15
2023-03-11T17:41:08.126Z,2.75
2023-03-11T17:43:35.097Z,1.83
2023-03-11T17:46:05.954Z,1.50
2023-03-11T17:48:33.077Z,1.40
2023-03-11T17:51:05.242Z,1.40
2023-03-11T17:53:33.442Z,1.80
2023-03-11T17:56:00.398Z,2.05
2023-03-11T17:58:27.414Z,3.00
2023-03-11T18:00:54.268Z,3.63
2023-03-11T18:03:21.147Z,5.43
2023-03-11T18:05:59.389Z,5.40
2023-03-11T18:08:26.560Z,2.90
2023-03-11T18:10:58.007Z,2.78
2023-03-11T18:13:25.033Z,3.45
2023-03-11T18:16:04.371Z,2.88
2023-03-11T18:18:33.114Z,1.65
2023-03-11T18:21:08.464Z,2.00
2023-03-11T18:23:35.968Z,1.58
2023-03-11T18:26:05.073Z,2.20
2023-03-11T18:28:32.308Z,3.17
2023-03-11T18:31:18.470Z,3.38
2023-03-11T18:33:53.673Z,7.75
2023-03-11T18:36:22.689Z,14.52
2023-03-11T18:38:50.547Z,13.88
2023-03-11T18:41:17.555Z,10.95
2023-03-11T18:43:44.547Z,10.15
2023-03-11T18:46:16.433Z,7.70
2023-03-11T18:48:43.267Z,8.00
2023-03-11T18:51:11.223Z,6.43
2023-03-11T18:53:38.360Z,4.18
2023-03-11T18:56:11.951Z,4.45
2023-03-11T18:58:39.056Z,7.78
2023-03-11T19:01:14.046Z,14.05
2023-03-11T19:03:42.487Z,9.65
2023-03-11T19:06:11.014Z,4.18
2023-03-11T19:08:38.406Z,2.70
2023-03-11T19:11:19.899Z,6.22
2023-03-11T19:13:48.057Z,8.32
2023-03-11T19:16:18.346Z,6.65
2023-03-11T19:18:45.679Z,3.20
2023-03-11T19:21:14.373Z,2.10
2023-03-11T19:23:41.784Z,1.70
2023-03-11T19:26:08.703Z,1.98
2023-03-11T19:28:35.955Z,1.88
2023-03-11T19:31:03.299Z,2.45
2023-03-11T19:33:30.237Z,2.88
2023-03-11T19:35:59.770Z,1.80
2023-03-11T19:38:27.368Z,2.17
2023-03-11T19:40:59.846Z,1.80
2023-03-11T19:43:27.163Z,2.08
2023-03-11T19:45:54.268Z,2.00
2023-03-11T19:48:21.211Z,2.20
2023-03-11T19:50:49.674Z,2.10
2023-03-11T19:53:17.787Z,2.30
2023-03-11T19:55:46.121Z,3.53
2023-03-11T19:58:13.246Z,1.90
2023-03-11T20:00:43.668Z,1.95
2023-03-11T20:03:12.564Z,2.20
2023-03-11T20:05:42.831Z,2.30
2023-03-11T20:08:12.417Z,2.53
2023-03-11T20:10:44.445Z,2.90
2023-03-11T20:13:11.353Z,2.72
2023-03-11T20:15:38.521Z,3.13
2023-03-11T20:18:06.525Z,3.08
2023-03-11T20:20:34.488Z,3.28
2023-03-11T20:23:02.297Z,2.85
2023-03-11T20:25:32.624Z,3.10
2023-03-11T20:28:00.747Z,4.10
2023-03-11T20:30:28.853Z,2.95
2023-03-11T20:32:56.095Z,2.70
2023-03-11T20:35:23.249Z,3.72
2023-03-11T20:37:50.313Z,5.88
2023-03-11T20:40:19.127Z,6.28
2023-03-11T20:42:48.936Z,3.17
2023-03-11T20:45:21.385Z,2.40
2023-03-11T20:47:53.699Z,3.30
2023-03-11T20:50:22.099Z,3.60
2023-03-11T20:52:49.310Z,3.58
2023-03-11T20:55:19.402Z,4.00
2023-03-11T20:57:46.778Z,3.63
2023-03-11T21:00:14.315Z,3.55
2023-03-11T21:02:42.780Z,3.80
2023-03-11T21:05:11.626Z,3.97
2023-03-11T21:07:38.635Z,3.50
2023-03-11T21:10:07.779Z,4.10
2023-03-11T21:12:35.349Z,3.60
2023-03-11T21:15:02.324Z,4.30
2023-03-11T21:17:29.136Z,3.88
2023-03-11T21:19:56.073Z,4.32
2023-03-11T21:22:23.034Z,4.53
2023-03-11T21:24:54.353Z,4.82
2023-03-11T21:27:26.208Z,4.50
2023-03-11T21:29:54.713Z,4.40
2023-03-11T21:32:22.280Z,4.70
2023-03-11T21:34:49.637Z,4.78
2023-03-11T21:37:16.973Z,5.35
2023-03-11T21:39:44.011Z,5.90
2023-03-11T21:42:10.943Z,6.00
2023-03-11T21:44:37.833Z,5.65
2023-03-11T21:47:05.540Z,6.10
2023-03-11T21:49:32.859Z,6.43
2023-03-11T21:52:02.100Z,6.18
2023-03-11T21:54:29.313Z,6.10
2023-03-11T21:56:56.285Z,5.68
2023-03-11T21:59:25.510Z,6.35
2023-03-11T22:01:52.831Z,5.82
2023-03-11T22:04:19.938Z,6.00
2023-03-11T22:06:47.035Z,6.22
2023-03-11T22:09:13.969Z,6.20
2023-03-11T22:11:40.983Z,6.32
2023-03-11T22:14:07.841Z,6.00
2023-03-11T22:16:34.704Z,6.03
2023-03-11T22:19:01.826Z,6.10
2023-03-11T22:21:28.833Z,6.85
2023-03-11T22:23:55.652Z,6.13
2023-03-11T22:26:22.506Z,6.18
2023-03-11T22:28:49.269Z,5.85
2023-03-11T22:31:18.532Z,5.78
2023-03-11T22:33:45.848Z,5.85
2023-03-11T22:36:12.809Z,5.90
2023-03-11T22:38:41.991Z,5.65
2023-03-11T22:41:09.276Z,5.95
2023-03-11T22:43:37.285Z,6.05
2023-03-11T22:46:05.173Z,6.25
2023-03-11T22:48:33.311Z,6.32
2023-03-11T22:51:00.226Z,6.10
2023-03-11T22:53:27.160Z,6.20
2023-03-11T22:55:54.116Z,5.72
2023-03-11T22:58:21.106Z,5.72
2023-03-11T23:00:48.017Z,5.57
2023-03-11T23:03:15.109Z,6.20
2023-03-11T23:05:42.643Z,5.72
2023-03-11T23:08:11.991Z,6.15
2023-03-11T23:10:43.872Z,5.70
2023-03-11T23:13:11.350Z,6.20
2023-03-11T23:15:41.332Z,6.30
2023-03-11T23:18:08.741Z,6.25
2023-03-11T23:20:37.956Z,6.13
2023-03-11T23:23:05.625Z,6.18
2023-03-11T23:25:33.249Z,5.80
2023-03-11T23:28:02.227Z,6.32
2023-03-11T23:30:29.290Z,5.90
2023-03-11T23:32:58.163Z,6.07
2023-03-11T23:35:25.313Z,5.97
2023-03-11T23:37:52.189Z,6.10
2023-03-11T23:40:19.097Z,6.40
2023-03-11T23:42:46.060Z,6.20
2023-03-11T23:45:14.102Z,6.18
2023-03-11T23:47:40.906Z,6.15
2023-03-11T23:50:08.916Z,6.07
2023-03-11T23:52:36.029Z,6.18
2023-03-11T23:55:02.854Z,5.88
2023-03-11T23:57:29.559Z,6.18
2023-03-11T23:59:56.367Z,7.55
